Time,TemperatureF,DewpointF,PressureIn,WindDirection,WindDirectionDegrees,WindSpeedMPH,WindSpeedGustMPH,Humidity,HourlyPrecipIn,Conditions,Clouds,dailyrainin,SolarRadiationWatts/m^2,SoftwareType,DateUTC
2013-10-03 00:01:00,53.0,49.0,-100.00,SSE,166,0.0,1.0,85,0.00,,,0.00,0.000000,,2013-10-03 04:01:00,
2013-10-03 00:44:00,53.0,49.0,-100.00,SSE,166,0.0,1.0,85,0.00,,,0.00,0.000000,,2013-10-03 04:44:00,
2013-10-03 00:53:00,53.0,49.0,-100.00,SSE,166,0.0,1.0,85,0.00,,,0.00,0.000000,,2013-10-03 04:53:00,
2013-10-03 01:01:00,52.0,48.0,-100.00,SE,130,0.0,2.0,85,0.00,,,0.00,0.000000,,2013-10-03 05:01:00,
2013-10-03 01:23:00,52.0,48.0,-100.00,SE,130,0.0,2.0,85,0.00,,,0.00,0.000000,,2013-10-03 05:23:00,
2013-10-03 01:33:00,52.0,48.0,-100.00,SE,130,0.0,2.0,85,0.00,,,0.00,0.000000,,2013-10-03 05:33:00,
2013-10-03 01:43:00,52.0,48.0,-100.00,SE,130,0.0,2.0,85,0.00,,,0.00,0.000000,,2013-10-03 05:43:00,
2013-10-03 01:52:00,52.0,48.0,-100.00,SE,130,0.0,2.0,85,0.00,,,0.00,0.000000,,2013-10-03 05:52:00,
2013-10-03 02:01:00,50.0,45.0,-100.00,SW,216,0.0,1.0,84,0.00,,,0.00,0.000000,,2013-10-03 06:01:00,
2013-10-03 02:22:00,50.0,45.0,-100.00,SW,216,0.0,1.0,84,0.00,,,0.00,0.000000,,2013-10-03 06:22:00,
2013-10-03 02:32:00,50.0,45.0,-100.00,SW,216,0.0,1.0,84,0.00,,,0.00,0.000000,,2013-10-03 06:32:00,
2013-10-03 02:42:00,50.0,45.0,-100.00,SW,216,0.0,1.0,84,0.00,,,0.00,0.000000,,2013-10-03 06:42:00,
2013-10-03 02:52:00,50.0,45.0,-100.00,SW,216,0.0,1.0,84,0.00,,,0.00,0.000000,,2013-10-03 06:52:00,
2013-10-03 03:01:00,49.0,44.0,-100.00,SSE,158,0.0,1.0,83,0.00,,,0.00,0.000000,,2013-10-03 07:01:00,
2013-10-03 03:22:00,49.0,44.0,-100.00,SSE,158,0.0,1.0,83,0.00,,,0.00,0.000000,,2013-10-03 07:22:00,
2013-10-03 03:32:00,49.0,44.0,-100.00,SSE,158,0.0,1.0,83,0.00,,,0.00,0.000000,,2013-10-03 07:32:00,
2013-10-03 03:42:00,49.0,44.0,-100.00,SSE,158,0.0,1.0,83,0.00,,,0.00,0.000000,,2013-10-03 07:42:00,
2013-10-03 03:52:00,49.0,44.0,-100.00,SSE,158,0.0,1.0,83,0.00,,,0.00,0.000000,,2013-10-03 07:52:00,
2013-10-03 04:01:00,48.0,43.0,-100.00,ESE,104,0.0,1.0,84,0.00,,,0.00,0.000000,,2013-10-03 08:01:00,
2013-10-03 04:22:00,48.0,43.0,-100.00,ESE,104,0.0,1.0,84,0.00,,,0.00,0.000000,,2013-10-03 08:22:00,
2013-10-03 04:32:00,48.0,43.0,-100.00,ESE,104,0.0,1.0,84,0.00,,,0.00,0.000000,,2013-10-03 08:32:00,
2013-10-03 04:42:00,48.0,43.0,-100.00,ESE,104,0.0,1.0,84,0.00,,,0.00,0.000000,,2013-10-03 08:42:00,
2013-10-03 04:52:00,48.0,43.0,-100.00,ESE,104,0.0,1.0,84,0.00,,,0.00,0.000000,,2013-10-03 08:52:00,
2013-10-03 05:01:00,47.0,44.0,-100.00,ESE,104,0.0,0.0,90,0.00,,,0.00,0.000000,,2013-10-03 09:01:00,
2013-10-03 05:43:00,47.0,44.0,-100.00,ESE,104,0.0,0.0,90,0.00,,,0.00,0.000000,,2013-10-03 09:43:00,
2013-10-03 05:53:00,47.0,44.0,-100.00,ESE,104,0.0,0.0,90,0.00,,,0.00,0.000000,,2013-10-03 09:53:00,
2013-10-03 06:01:00,45.0,43.0,-100.00,ESE,104,0.0,0.0,94,0.00,,,0.00,0.000000,,2013-10-03 10:01:00,
2013-10-03 06:23:00,45.0,43.0,-100.00,ESE,104,0.0,0.0,94,0.00,,,0.00,0.000000,,2013-10-03 10:23:00,
2013-10-03 06:33:00,45.0,43.0,-100.00,ESE,104,0.0,0.0,94,0.00,,,0.00,0.000000,,2013-10-03 10:33:00,
2013-10-03 06:43:00,45.0,43.0,-100.00,ESE,104,0.0,0.0,94,0.00,,,0.00,0.000000,,2013-10-03 10:43:00,
2013-10-03 06:52:00,45.0,43.0,-100.00,ESE,104,0.0,0.0,94,0.00,,,0.00,0.000000,,2013-10-03 10:52:00,
2013-10-03 07:01:00,44.0,43.0,-100.00,ESE,104,0.0,0.0,96,0.00,,,0.00,1.000000,,2013-10-03 11:01:00,
2013-10-03 07:23:00,44.0,43.0,-100.00,ESE,104,0.0,0.0,96,0.00,,,0.00,1.000000,,2013-10-03 11:23:00,
2013-10-03 07:33:00,44.0,43.0,-100.00,ESE,104,0.0,0.0,96,0.00,,,0.00,1.000000,,2013-10-03 11:33:00,
2013-10-03 07:42:00,44.0,43.0,-100.00,ESE,104,0.0,0.0,96,0.00,,,0.00,1.000000,,2013-10-03 11:42:00,
2013-10-03 07:52:00,44.0,43.0,-100.00,ESE,104,0.0,0.0,96,0.00,,,0.00,1.000000,,2013-10-03 11:52:00,
2013-10-03 08:01:00,45.0,44.0,-100.00,ESE,104,0.0,0.0,97,0.00,,,0.00,13.000000,,2013-10-03 12:01:00,
2013-10-03 08:22:00,45.0,44.0,-100.00,ESE,104,0.0,0.0,97,0.00,,,0.00,13.000000,,2013-10-03 12:22:00,
2013-10-03 08:32:00,45.0,44.0,-100.00,ESE,104,0.0,0.0,97,0.00,,,0.00,13.000000,,2013-10-03 12:32:00,
2013-10-03 08:42:00,45.0,44.0,-100.00,ESE,104,0.0,0.0,97,0.00,,,0.00,13.000000,,2013-10-03 12:42:00,
2013-10-03 08:52:00,45.0,44.0,-100.00,ESE,104,0.0,0.0,97,0.00,,,0.00,13.000000,,2013-10-03 12:52:00,
2013-10-03 09:01:00,57.0,48.0,-100.00,SSW,192,2.0,5.0,71,0.00,,,0.00,168.000000,,2013-10-03 13:01:00,
2013-10-03 09:42:00,57.0,48.0,-100.00,SSW,192,2.0,5.0,71,0.00,,,0.00,168.000000,,2013-10-03 13:42:00,
2013-10-03 09:52:00,57.0,48.0,-100.00,SSW,192,2.0,5.0,71,0.00,,,0.00,168.000000,,2013-10-03 13:52:00,
2013-10-03 10:01:00,63.0,48.0,-100.00,SSW,192,2.0,7.0,59,0.00,,,0.00,375.000000,,2013-10-03 14:01:00,
2013-10-03 10:42:00,63.0,48.0,-100.00,SSW,192,2.0,7.0,59,0.00,,,0.00,375.000000,,2013-10-03 14:42:00,
2013-10-03 10:52:00,63.0,48.0,-100.00,SSW,192,2.0,7.0,59,0.00,,,0.00,375.000000,,2013-10-03 14:52:00,
2013-10-03 11:01:00,67.0,49.0,-100.00,South,180,2.0,6.0,53,0.00,,,0.00,533.000000,,2013-10-03 15:01:00,
2013-10-03 11:22:00,67.0,49.0,-100.00,South,180,2.0,6.0,53,0.00,,,0.00,533.000000,,2013-10-03 15:22:00,
2013-10-03 11:33:00,67.0,49.0,-100.00,South,180,2.0,6.0,53,0.00,,,0.00,533.000000,,2013-10-03 15:33:00,
2013-10-03 11:43:00,67.0,49.0,-100.00,South,180,2.0,6.0,53,0.00,,,0.00,533.000000,,2013-10-03 15:43:00,
2013-10-03 11:54:00,67.0,49.0,-100.00,South,180,2.0,6.0,53,0.00,,,0.00,533.000000,,2013-10-03 15:54:00,
2013-10-03 12:01:00,70.0,49.0,-100.00,SSW,197,2.0,7.0,47,0.00,,,0.00,640.000000,,2013-10-03 16:01:00,
2013-10-03 12:23:00,70.0,49.0,-100.00,SSW,197,2.0,7.0,47,0.00,,,0.00,640.000000,,2013-10-03 16:23:00,
2013-10-03 12:33:00,70.0,49.0,-100.00,SSW,197,2.0,7.0,47,0.00,,,0.00,640.000000,,2013-10-03 16:33:00,
2013-10-03 12:43:00,70.0,49.0,-100.00,SSW,197,2.0,7.0,47,0.00,,,0.00,640.000000,,2013-10-03 16:43:00,
2013-10-03 12:53:00,70.0,49.0,-100.00,SSW,197,2.0,7.0,47,0.00,,,0.00,640.000000,,2013-10-03 16:53:00,
2013-10-03 13:01:00,73.0,50.0,-100.00,West,275,2.0,8.0,44,0.00,,,0.00,690.000000,,2013-10-03 17:01:00,
2013-10-03 13:22:00,73.0,50.0,-100.00,West,275,2.0,8.0,44,0.00,,,0.00,690.000000,,2013-10-03 17:22:00,
2013-10-03 13:33:00,73.0,50.0,-100.00,West,275,2.0,8.0,44,0.00,,,0.00,690.000000,,2013-10-03 17:33:00,
2013-10-03 13:42:00,73.0,50.0,-100.00,West,275,2.0,8.0,44,0.00,,,0.00,690.000000,,2013-10-03 17:42:00,
2013-10-03 13:52:00,73.0,50.0,-100.00,West,275,2.0,8.0,44,0.00,,,0.00,690.000000,,2013-10-03 17:52:00,
2013-10-03 14:01:00,75.0,50.0,-100.00,ESE,111,0.0,7.0,42,0.00,,,0.00,656.000000,,2013-10-03 18:01:00,
2013-10-03 14:22:00,75.0,50.0,-100.00,ESE,111,0.0,7.0,42,0.00,,,0.00,656.000000,,2013-10-03 18:22:00,
2013-10-03 14:32:00,75.0,50.0,-100.00,ESE,111,0.0,7.0,42,0.00,,,0.00,656.000000,,2013-10-03 18:32:00,
2013-10-03 14:42:00,75.0,50.0,-100.00,ESE,111,0.0,7.0,42,0.00,,,0.00,656.000000,,2013-10-03 18:42:00,
2013-10-03 14:52:00,75.0,50.0,-100.00,ESE,111,0.0,7.0,42,0.00,,,0.00,656.000000,,2013-10-03 18:52:00,
2013-10-03 15:01:00,75.0,51.0,-100.00,NW,317,1.0,6.0,43,0.00,,,0.00,554.000000,,2013-10-03 19:01:00,
2013-10-03 15:22:00,75.0,51.0,-100.00,NW,317,1.0,6.0,43,0.00,,,0.00,554.000000,,2013-10-03 19:22:00,
2013-10-03 15:32:00,75.0,51.0,-100.00,NW,317,1.0,6.0,43,0.00,,,0.00,554.000000,,2013-10-03 19:32:00,
2013-10-03 15:42:00,75.0,51.0,-100.00,NW,317,1.0,6.0,43,0.00,,,0.00,554.000000,,2013-10-03 19:42:00,
2013-10-03 15:53:00,75.0,51.0,-100.00,NW,317,1.0,6.0,43,0.00,,,0.00,554.000000,,2013-10-03 19:53:00,
2013-10-03 16:01:00,72.0,51.0,-100.00,South,169,0.0,5.0,47,0.00,,,0.00,358.000000,,2013-10-03 20:01:00,
2013-10-03 16:22:00,72.0,51.0,-100.00,South,169,0.0,5.0,47,0.00,,,0.00,358.000000,,2013-10-03 20:22:00,
2013-10-03 16:32:00,72.0,51.0,-100.00,South,169,0.0,5.0,47,0.00,,,0.00,358.000000,,2013-10-03 20:32:00,
2013-10-03 16:42:00,72.0,51.0,-100.00,South,169,0.0,5.0,47,0.00,,,0.00,358.000000,,2013-10-03 20:42:00,
2013-10-03 16:52:00,72.0,51.0,-100.00,South,169,0.0,5.0,47,0.00,,,0.00,358.000000,,2013-10-03 20:52:00,
2013-10-03 17:01:00,73.0,53.0,-100.00,West,273,0.0,5.0,49,0.00,,,0.00,279.000000,,2013-10-03 21:01:00,
2013-10-03 17:43:00,73.0,53.0,-100.00,West,273,0.0,5.0,49,0.00,,,0.00,279.000000,,2013-10-03 21:43:00,
2013-10-03 17:54:00,73.0,53.0,-100.00,West,273,0.0,5.0,49,0.00,,,0.00,279.000000,,2013-10-03 21:54:00,
2013-10-03 18:01:00,63.0,55.0,-100.00,NNW,335,0.0,3.0,75,0.00,,,0.00,69.000000,,2013-10-03 22:01:00,
2013-10-03 18:23:00,63.0,55.0,-100.00,NNW,335,0.0,3.0,75,0.00,,,0.00,69.000000,,2013-10-03 22:23:00,
2013-10-03 18:33:00,63.0,55.0,-100.00,NNW,335,0.0,3.0,75,0.00,,,0.00,69.000000,,2013-10-03 22:33:00,
2013-10-03 18:43:00,63.0,55.0,-100.00,NNW,335,0.0,3.0,75,0.00,,,0.00,69.000000,,2013-10-03 22:43:00,
2013-10-03 18:54:00,63.0,55.0,-100.00,NNW,335,0.0,3.0,75,0.00,,,0.00,69.000000,,2013-10-03 22:54:00,
2013-10-03 19:01:00,57.0,52.0,-100.00,NNW,335,0.0,0.0,83,0.00,,,0.00,6.000000,,2013-10-03 23:01:00,
2013-10-03 19:43:00,57.0,52.0,-100.00,NNW,335,0.0,0.0,83,0.00,,,0.00,6.000000,,2013-10-03 23:43:00,
2013-10-03 19:53:00,57.0,52.0,-100.00,NNW,335,0.0,0.0,83,0.00,,,0.00,6.000000,,2013-10-03 23:53:00,
2013-10-03 20:01:00,53.0,51.0,-100.00,NNW,335,0.0,0.0,92,0.00,,,0.00,0.000000,,2013-10-04 00:01:00,
2013-10-03 20:22:00,53.0,51.0,-100.00,NNW,335,0.0,0.0,92,0.00,,,0.00,0.000000,,2013-10-04 00:22:00,
2013-10-03 20:32:00,53.0,51.0,-100.00,NNW,335,0.0,0.0,92,0.00,,,0.00,0.000000,,2013-10-04 00:32:00,
2013-10-03 20:42:00,53.0,51.0,-100.00,NNW,335,0.0,0.0,92,0.00,,,0.00,0.000000,,2013-10-04 00:42:00,
2013-10-03 20:52:00,53.0,51.0,-100.00,NNW,335,0.0,0.0,92,0.00,,,0.00,0.000000,,2013-10-04 00:52:00,
2013-10-03 21:01:00,52.0,51.0,-100.00,NNW,335,0.0,0.0,95,0.00,,,0.00,0.000000,,2013-10-04 01:01:00,
2013-10-03 21:22:00,52.0,51.0,-100.00,NNW,335,0.0,0.0,95,0.00,,,0.00,0.000000,,2013-10-04 01:22:00,
2013-10-03 21:32:00,52.0,51.0,-100.00,NNW,335,0.0,0.0,95,0.00,,,0.00,0.000000,,2013-10-04 01:32:00,
2013-10-03 21:42:00,52.0,51.0,-100.00,NNW,335,0.0,0.0,95,0.00,,,0.00,0.000000,,2013-10-04 01:42:00,
2013-10-03 21:52:00,52.0,51.0,-100.00,NNW,335,0.0,0.0,95,0.00,,,0.00,0.000000,,2013-10-04 01:52:00,
2013-10-03 22:01:00,50.0,49.0,-100.00,West,268,0.0,0.0,95,0.00,,,0.00,0.000000,,2013-10-04 02:01:00,
2013-10-03 22:22:00,50.0,49.0,-100.00,West,268,0.0,0.0,95,0.00,,,0.00,0.000000,,2013-10-04 02:22:00,
2013-10-03 22:33:00,50.0,49.0,-100.00,West,268,0.0,0.0,95,0.00,,,0.00,0.000000,,2013-10-04 02:33:00,
2013-10-03 22:43:00,50.0,49.0,-100.00,West,268,0.0,0.0,95,0.00,,,0.00,0.000000,,2013-10-04 02:43:00,
2013-10-03 22:52:00,50.0,49.0,-100.00,West,268,0.0,0.0,95,0.00,,,0.00,0.000000,,2013-10-04 02:52:00,
2013-10-03 23:22:00,49.0,48.0,-100.00,West,268,0.0,0.0,97,0.00,,,0.00,0.000000,,2013-10-04 03:22:00,
2013-10-03 23:34:00,49.0,48.0,-100.00,West,268,0.0,0.0,97,0.00,,,0.00,0.000000,,2013-10-04 03:34:00,
2013-10-03 23:44:00,49.0,48.0,-100.00,West,268,0.0,0.0,97,0.00,,,0.00,0.000000,,2013-10-04 03:44:00,